EW2109 Weather Reports


Display with metric or nautical units.
time (UTC)temp
F
wind
direction
speed
MPH
gust
MPH
rain 1hr
in
rain 24hr
in
rain mn
in
humidity
%
barometer
mb
20171020123318 50 25 4.0 0.0 0.00 0.00 0.43 61 1004.6
20171020121842 50 38 3.0 0.0 0.00 0.00 0.43 61 1004.8
20171020120315 50 79 3.0 0.0 0.00 0.00 0.42 61 1004.9
20171020114812 50 34 4.0 0.0 0.00 0.00 0.42 61 1005.0
20171020113317 49 68 1.0 0.0 0.00 0.00 0.41 62 1005.1
20171020111811 49 86 2.0 0.0 0.00 0.00 0.40 61 1005.1
20171020110308 49 93 3.0 0.0 0.00 0.00 0.40 62 1005.2
20171020104806 49 113 5.0 0.0 0.00 0.00 0.39 62 1005.3
20171020103323 48 92 4.0 0.0 0.00 0.00 0.39 62 1005.5
20171020101809 48 86 3.0 0.0 0.00 0.00 0.38 62 1005.5
20171020100303 48 61 4.0 0.0 0.00 0.00 0.37 62 1005.3
20171020094826 48 107 3.0 0.0 0.00 0.00 0.37 61 1005.2
20171020093300 48 106 4.0 0.0 0.00 0.00 0.36 62 1005.4
20171020091811 47 109 5.0 0.0 0.00 0.00 0.35 63 1005.5
20171020090257 47 109 4.0 0.0 0.00 0.00 0.35 63 1005.7
20171020084804 46 106 3.0 0.0 0.00 0.00 0.34 63 1005.8
20171020083258 45 104 1.0 0.0 0.00 0.00 0.34 64 1005.7
20171020081751 45 110 1.0 0.0 0.00 0.00 0.33 64 1005.7
20171020080250 44 113 4.0 0.0 0.00 0.00 0.32 64 1005.8
20171020074749 44 124 3.0 0.0 0.00 0.00 0.31 64 1005.6
20171020073252 43 123 0.0 0.0 0.00 0.00 0.31 64 1005.7
20171020071748 44 123 6.0 0.0 0.00 0.00 0.31 63 1005.6
20171020070246 44 124 4.0 0.0 0.00 0.00 0.30 63 1005.6
20171020064746 44 109 5.0 0.0 0.00 0.00 0.28 62 1005.5
20171020063247 43 123 3.0 0.0 0.00 0.00 0.28 63 1005.7
20171020061743 43 136 5.0 0.0 0.00 0.00 0.28 63 1005.7
20171020060244 43 124 5.0 0.0 0.00 0.00 0.28 62 1005.8
20171020054746 43 136 5.0 0.0 0.00 0.00 0.27 61 1005.9
20171020053240 43 136 6.0 0.0 0.00 0.00 0.26 60 1005.8
20171020051741 42 147 5.0 0.0 0.00 0.00 0.25 61 1006.1
20171020050239 42 126 6.0 0.0 0.00 0.00 0.24 60 1006.3
20171020044811 42 127 6.0 0.0 0.00 0.00 0.24 60 1006.3
20171020043236 42 117 5.0 0.0 0.00 0.00 0.23 60 1006.4
20171020041735 42 130 5.0 0.0 0.00 0.00 0.23 60 1006.5
20171020040237 42 124 3.0 0.0 0.00 0.00 0.21 60 1006.5
20171020034735 42 113 4.0 0.0 0.00 0.00 0.21 58 1006.7
20171020033232 42 116 3.0 0.0 0.00 0.00 0.20 59 1006.9
20171020031817 42 120 4.0 0.0 0.00 0.00 0.20 58 1006.8
20171020030230 42 117 5.0 0.0 0.00 0.00 0.18 57 1006.9
20171020024730 42 138 4.0 0.0 0.00 0.00 0.18 58 1006.9
20171020023229 41 126 1.0 0.0 0.00 0.00 0.17 57 1007.1
20171020021731 42 140 5.0 0.0 0.00 0.00 0.16 56 1007.1
20171020020231 42 121 5.0 0.0 0.00 0.00 0.15 54 1007.2
20171020014749 42 134 3.0 0.0 0.00 0.00 0.14 54 1007.2
20171020013224 41 116 3.0 0.0 0.00 0.00 0.13 56 1007.3
20171020011732 40 112 1.0 0.0 0.00 0.00 0.13 57 1007.4
20171020010222 41 120 3.0 0.0 0.00 0.00 0.12 54 1007.5
20171020004725 41 147 2.0 0.0 0.00 0.00 0.10 51 1007.5
20171020003223 40 147 3.0 0.0 0.00 0.00 0.09 54 1007.6
20171020001718 41 147 5.0 0.0 0.00 0.00 0.09 51 1007.7
20171020000239 39 141 0.0 0.0 0.00 0.00 0.07 54 1007.7
20171019234717 40 141 5.0 0.0 0.00 0.00 0.06 54 1007.8
20171019233217 39 162 3.0 0.0 0.00 0.00 0.06 55 1007.9
20171019231713 39 143 3.0 0.0 0.00 0.00 0.04 52 1008.1
20171019230217 38 144 1.0 0.0 0.00 0.00 0.03 54 1008.1
20171019224716 39 144 2.0 0.0 0.00 0.00 0.02 56 1008.1
20171019223216 39 143 5.0 0.0 0.00 0.00 0.02 49 1008.2
20171019221707 39 112 5.0 0.0 0.00 0.00 0.01 51 1008.4
20171019220204 39 152 3.0 0.0 0.00 0.00 0.00 51 1008.5
20171019214717 38 124 4.0 0.0 0.00 0.00 1.17 49 1008.6
20171019213212 38 136 3.0 0.0 0.00 0.00 1.15 52 1008.6
20171019211708 37 154 2.0 0.0 0.00 0.00 1.13 52 1008.7
20171019210201 34 148 0.0 0.0 0.00 0.00 1.12 63 1009.1
20171019204659 35 148 1.0 0.0 0.00 0.00 1.12 61 1009.0
20171019203201 33 150 0.0 0.0 0.00 0.00 1.10 65 1009.0
20171019201658 33 150 0.0 0.0 0.00 0.00 1.09 63 1009.3
20171019200157 33 150 0.0 0.0 0.00 0.00 1.08 65 1009.7
20171019194711 34 150 0.0 0.0 0.00 0.00 1.06 63 1009.3
20171019193157 36 150 1.0 0.0 0.00 0.00 1.06 55 1009.3
20171019191656 37 158 2.0 0.0 0.00 0.00 1.04 54 1009.4
20171019190156 38 150 3.0 0.0 0.00 0.00 1.02 54 1009.8
20171019184655 37 155 2.0 0.0 0.00 0.00 1.01 51 1009.9
20171019183155 37 192 1.0 0.0 0.00 0.00 0.99 53 1010.0
20171019181704 38 239 4.0 0.0 0.00 0.00 0.98 54 1010.1
20171019180210 38 145 1.0 0.0 0.00 0.00 0.96 52 1010.4
20171019174652 40 150 5.0 0.0 0.00 0.00 0.94 47 1010.3
20171019173211 39 157 3.0 0.0 0.00 0.00 0.92 51 1010.5
20171019171712 38 147 2.0 0.0 0.00 0.00 0.91 53 1010.7
20171019170150 38 167 1.0 0.0 0.00 0.00 0.89 54 1010.7
20171019164650 39 143 5.0 0.0 0.00 0.00 0.87 49 1010.7
20171019163150 40 140 6.0 0.0 0.00 0.00 0.85 49 1010.7
20171019161706 40 154 4.0 0.0 0.00 0.00 0.83 50 1010.7
20171019160156 39 155 1.0 0.0 0.00 0.00 0.82 57 1010.7
20171019154648 40 140 3.0 0.0 0.00 0.00 0.80 50 1010.6
20171019153147 40 150 5.0 0.0 0.00 0.00 0.79 48 1010.7
20171019151647 39 144 1.0 0.0 0.00 0.00 0.76 61 1010.7
20171019150148 40 144 2.0 0.0 0.00 0.00 0.75 53 1010.8
20171019144652 39 144 1.0 0.0 0.00 0.00 0.73 59 1010.8
20171019143148 41 144 3.0 0.0 0.00 0.00 0.71 53 1010.7
20171019141655 41 144 0.0 0.0 0.00 0.00 0.69 50 1010.7
20171019140149 41 144 0.0 0.0 0.00 0.00 0.67 57 1010.7
20171019134644 41 144 2.0 0.0 0.00 0.00 0.65 53 1010.7
20171019133155 42 144 6.0 0.0 0.00 0.00 0.63 48 1010.7
20171019131648 41 127 1.0 0.0 0.00 0.00 0.61 48 1010.7
20171019130142 41 123 0.0 0.0 0.00 0.00 0.57 53 1010.8
20171019124651 41 123 0.0 0.0 0.00 0.00 0.56 57 1010.8